createdAt,value
2022-12-07T00:00:40.661Z,99.67
2022-12-07T00:01:40.769Z,99.72
2022-12-07T00:02:40.755Z,99.72
2022-12-07T00:03:40.797Z,99.72
2022-12-07T00:04:40.664Z,99.63
2022-12-07T00:05:40.668Z,99.58
2022-12-07T00:06:40.674Z,99.48
2022-12-07T00:07:40.747Z,99.67
2022-12-07T00:08:40.697Z,99.67
2022-12-07T00:09:40.676Z,99.67
2022-12-07T00:10:40.667Z,99.58
2022-12-07T00:11:40.678Z,99.96
2022-12-07T00:12:40.678Z,99.77
2022-12-07T00:13:40.672Z,99.96
2022-12-07T00:14:40.680Z,99.96
2022-12-07T00:15:40.674Z,99.91
2022-12-07T00:16:40.764Z,99.82
2022-12-07T00:17:40.678Z,99.99
2022-12-07T00:18:40.674Z,99.99
2022-12-07T00:19:40.685Z,99.86
2022-12-07T00:20:40.685Z,99.96
2022-12-07T00:21:40.685Z,99.99
2022-12-07T00:22:40.685Z,99.86
2022-12-07T00:23:40.686Z,99.99
2022-12-07T00:24:40.711Z,99.99
2022-12-07T00:25:40.688Z,99.99
2022-12-07T00:26:40.692Z,99.99
2022-12-07T00:27:40.690Z,99.99
2022-12-07T00:28:40.686Z,99.99
2022-12-07T00:29:40.687Z,99.96
2022-12-07T00:30:40.693Z,99.99
2022-12-07T00:31:40.792Z,99.99
2022-12-07T00:32:40.689Z,99.99
2022-12-07T00:33:40.687Z,99.99
2022-12-07T00:34:40.690Z,99.99
2022-12-07T00:35:40.690Z,99.99
2022-12-07T00:36:40.702Z,99.99
2022-12-07T00:37:40.690Z,99.99
2022-12-07T00:38:40.699Z,99.99
2022-12-07T00:39:40.700Z,99.99
2022-12-07T00:40:40.711Z,99.99
2022-12-07T00:41:40.701Z,99.99
2022-12-07T00:42:40.701Z,99.99
2022-12-07T00:43:40.704Z,99.99
2022-12-07T00:44:40.694Z,99.99
2022-12-07T00:45:40.786Z,99.99
2022-12-07T00:46:40.696Z,99.99
2022-12-07T00:47:40.699Z,99.99
2022-12-07T00:48:40.701Z,99.99
2022-12-07T00:49:40.707Z,99.99
2022-12-07T00:50:40.707Z,99.99
2022-12-07T00:51:40.702Z,99.99
2022-12-07T00:52:40.702Z,99.99
2022-12-07T00:53:42.003Z,99.99
2022-12-07T00:54:40.713Z,99.99
2022-12-07T00:55:40.714Z,99.99
2022-12-07T00:56:40.724Z,99.99
2022-12-07T00:57:40.708Z,99.99
2022-12-07T00:58:40.715Z,99.99
2022-12-07T00:59:40.715Z,99.99
2022-12-07T01:00:40.716Z,99.99
2022-12-07T01:01:40.815Z,99.99
2022-12-07T01:02:40.710Z,99.99
2022-12-07T01:03:40.789Z,99.99
2022-12-07T01:04:40.722Z,99.99
2022-12-07T01:05:40.714Z,99.99
2022-12-07T01:06:40.715Z,99.99
2022-12-07T01:07:40.744Z,99.99
2022-12-07T01:08:40.721Z,99.99
2022-12-07T01:09:40.730Z,99.99
2022-12-07T01:10:40.724Z,99.99
2022-12-07T01:11:40.719Z,99.99
2022-12-07T01:12:40.745Z,99.99
2022-12-07T01:13:40.720Z,99.99
2022-12-07T01:14:40.726Z,99.99
2022-12-07T01:15:40.721Z,99.99
2022-12-07T01:16:40.801Z,99.99
2022-12-07T01:17:40.724Z,99.99
2022-12-07T01:18:40.726Z,99.99
2022-12-07T01:19:40.734Z,99.99
2022-12-07T01:20:40.723Z,99.99
2022-12-07T01:21:40.727Z,99.99
2022-12-07T01:22:40.729Z,99.99
2022-12-07T01:23:40.729Z,99.99
2022-12-07T01:24:40.736Z,99.99
2022-12-07T01:25:40.728Z,99.99
2022-12-07T01:26:40.738Z,99.99
2022-12-07T01:27:40.730Z,99.99
2022-12-07T01:28:40.752Z,99.99
2022-12-07T01:29:40.740Z,99.99
2022-12-07T01:30:40.884Z,99.99
2022-12-07T01:31:40.734Z,99.99
2022-12-07T01:32:40.748Z,99.99
2022-12-07T01:33:40.735Z,99.99
2022-12-07T01:34:40.738Z,99.99
2022-12-07T01:35:40.746Z,99.99
2022-12-07T01:36:40.738Z,99.99
2022-12-07T01:37:40.743Z,99.99
2022-12-07T01:38:40.742Z,99.99
2022-12-07T01:39:40.742Z,99.99
2022-12-07T01:41:23.289Z,99.99
2022-12-07T01:42:23.283Z,99.99
2022-12-07T01:43:23.287Z,99.99
2022-12-07T01:44:23.304Z,99.99
2022-12-07T01:45:23.290Z,99.99
2022-12-07T01:46:23.338Z,99.99
2022-12-07T01:47:23.291Z,99.99
2022-12-07T01:48:23.293Z,99.99
2022-12-07T01:49:23.292Z,99.99
2022-12-07T01:50:23.288Z,99.99
2022-12-07T01:51:23.296Z,99.99
2022-12-07T01:52:23.292Z,99.99
2022-12-07T01:53:23.296Z,99.99
2022-12-07T01:54:23.291Z,99.99
2022-12-07T01:55:23.297Z,99.99
2022-12-07T01:56:23.292Z,99.99
2022-12-07T01:57:23.305Z,99.99
2022-12-07T01:58:23.300Z,99.99
2022-12-07T01:59:23.303Z,99.99
2022-12-07T02:00:23.329Z,99.99
2022-12-07T02:01:23.329Z,99.99
2022-12-07T02:02:23.327Z,99.99
2022-12-07T02:03:23.306Z,99.99
2022-12-07T02:04:23.305Z,99.99
2022-12-07T02:05:23.309Z,99.99
2022-12-07T02:06:23.307Z,99.99
2022-12-07T02:07:23.310Z,99.99
2022-12-07T02:08:23.376Z,99.99
2022-12-07T02:09:23.313Z,99.99
2022-12-07T02:10:23.303Z,99.99
2022-12-07T02:11:23.305Z,99.99
2022-12-07T02:12:23.305Z,99.99
2022-12-07T02:13:23.316Z,99.99
2022-12-07T02:14:23.317Z,99.99
2022-12-07T02:15:23.307Z,99.99
2022-12-07T02:16:23.390Z,99.99
2022-12-07T02:17:23.308Z,99.99
2022-12-07T02:18:23.318Z,99.99
2022-12-07T02:19:23.319Z,99.99
2022-12-07T02:20:23.321Z,99.99
2022-12-07T02:21:23.314Z,99.99
2022-12-07T02:22:23.321Z,99.99
2022-12-07T02:23:23.330Z,99.99
2022-12-07T02:24:23.322Z,99.99
2022-12-07T02:25:23.315Z,99.99
2022-12-07T02:26:23.319Z,99.99
2022-12-07T02:27:23.317Z,99.99
2022-12-07T02:28:23.326Z,99.99
2022-12-07T02:29:23.319Z,99.99
2022-12-07T02:30:23.330Z,99.99
2022-12-07T02:31:23.391Z,99.99
2022-12-07T02:32:23.350Z,99.99
2022-12-07T02:33:23.325Z,99.99
2022-12-07T02:34:23.324Z,99.99
2022-12-07T02:35:23.329Z,99.99
2022-12-07T02:36:23.333Z,99.99
2022-12-07T02:37:23.346Z,99.99
2022-12-07T02:38:23.328Z,99.99
2022-12-07T02:39:23.330Z,99.99
2022-12-07T02:40:23.337Z,99.99
2022-12-07T02:41:23.339Z,99.99
2022-12-07T02:42:23.339Z,99.99
2022-12-07T02:43:23.335Z,99.99
2022-12-07T02:44:23.333Z,99.99
2022-12-07T02:45:23.344Z,99.99
2022-12-07T02:46:23.362Z,99.99
2022-12-07T02:47:23.340Z,99.99
2022-12-07T02:48:23.365Z,99.99
2022-12-07T02:49:23.337Z,99.99
2022-12-07T02:50:23.348Z,99.99
2022-12-07T02:51:23.348Z,99.99
2022-12-07T02:52:23.344Z,99.99
2022-12-07T02:53:23.343Z,99.99
2022-12-07T02:54:23.346Z,99.99
2022-12-07T02:55:23.352Z,99.99
2022-12-07T02:56:23.348Z,99.99
2022-12-07T02:57:23.366Z,99.99
2022-12-07T02:58:23.349Z,99.99
2022-12-07T02:59:23.349Z,99.99
2022-12-07T03:00:23.358Z,99.99
2022-12-07T03:01:23.405Z,99.99
2022-12-07T03:02:23.432Z,99.99
2022-12-07T03:03:23.364Z,99.99
2022-12-07T03:04:23.385Z,99.99
2022-12-07T03:05:23.355Z,99.99
2022-12-07T03:06:23.356Z,99.99
2022-12-07T03:07:23.366Z,99.99
2022-12-07T03:08:23.399Z,99.99
2022-12-07T03:09:23.369Z,99.99
2022-12-07T03:10:23.372Z,99.99
2022-12-07T03:11:23.373Z,99.99
2022-12-07T03:12:23.363Z,99.99
2022-12-07T03:13:23.373Z,99.99
2022-12-07T03:14:23.366Z,99.99
2022-12-07T03:15:23.369Z,99.99
2022-12-07T03:16:23.404Z,99.99
2022-12-07T03:17:23.379Z,99.99
2022-12-07T03:18:23.379Z,99.99
2022-12-07T03:19:23.381Z,99.99
2022-12-07T03:20:23.393Z,99.99
2022-12-07T03:21:23.378Z,99.99
2022-12-07T03:22:23.377Z,99.99
2022-12-07T03:23:23.376Z,99.99
2022-12-07T03:24:23.385Z,99.99
2022-12-07T03:25:23.379Z,99.99
2022-12-07T03:26:23.381Z,99.99
2022-12-07T03:27:23.386Z,99.99
2022-12-07T03:28:23.383Z,99.99
2022-12-07T03:29:23.382Z,99.99
2022-12-07T03:30:23.387Z,99.99
2022-12-07T03:31:23.447Z,99.99
2022-12-07T03:32:23.388Z,99.99
2022-12-07T03:33:23.389Z,99.99
2022-12-07T03:34:23.400Z,99.99
2022-12-07T03:35:23.398Z,99.99
2022-12-07T03:36:23.417Z,99.99
2022-12-07T03:37:23.393Z,99.99
2022-12-07T03:38:23.396Z,99.99
2022-12-07T03:39:23.396Z,99.99
2022-12-07T03:40:23.404Z,99.99
2022-12-07T03:41:23.399Z,99.99
2022-12-07T03:42:23.400Z,99.99
2022-12-07T03:43:23.410Z,99.99
2022-12-07T03:44:23.401Z,99.99
2022-12-07T03:45:23.404Z,99.99
2022-12-07T03:46:23.484Z,99.99
2022-12-07T03:47:23.415Z,99.99
2022-12-07T03:48:23.413Z,99.99
2022-12-07T03:49:23.417Z,99.99
2022-12-07T03:50:23.410Z,99.99
2022-12-07T03:51:23.412Z,99.99
2022-12-07T03:52:23.439Z,99.99
2022-12-07T03:53:23.423Z,99.99
2022-12-07T03:54:23.422Z,99.99
2022-12-07T03:55:23.417Z,99.99
2022-12-07T03:56:23.416Z,99.99
2022-12-07T03:57:23.425Z,99.99
2022-12-07T03:58:23.420Z,99.99
2022-12-07T03:59:23.426Z,99.99
2022-12-07T04:00:23.429Z,99.99
2022-12-07T04:01:23.487Z,99.99
2022-12-07T04:02:23.436Z,99.99
2022-12-07T04:03:23.520Z,99.99
2022-12-07T04:04:23.428Z,99.99
2022-12-07T04:05:23.436Z,99.99
2022-12-07T04:06:23.439Z,99.99
2022-12-07T04:07:23.439Z,99.99
2022-12-07T04:08:23.579Z,99.99
2022-12-07T04:09:23.434Z,99.99
2022-12-07T04:10:23.437Z,99.99
2022-12-07T04:11:23.445Z,99.99
2022-12-07T04:12:23.439Z,99.99
2022-12-07T04:13:23.446Z,99.99
2022-12-07T04:14:23.449Z,99.99
2022-12-07T04:15:23.444Z,99.99
2022-12-07T04:16:23.491Z,99.99
2022-12-07T04:17:23.453Z,99.99
2022-12-07T04:18:23.452Z,99.99
2022-12-07T04:19:23.449Z,99.99
2022-12-07T04:20:23.455Z,99.99
2022-12-07T04:21:23.457Z,99.99
2022-12-07T04:22:23.457Z,99.99
2022-12-07T04:23:23.453Z,99.99
2022-12-07T04:24:23.473Z,99.99
2022-12-07T04:25:23.459Z,99.99
2022-12-07T04:26:23.456Z,99.99
2022-12-07T04:27:23.466Z,99.99
2022-12-07T04:28:23.466Z,99.99
2022-12-07T04:29:23.468Z,99.99
2022-12-07T04:30:23.471Z,99.99
2022-12-07T04:31:23.519Z,99.99
2022-12-07T04:32:23.465Z,99.99
2022-12-07T04:33:23.474Z,99.99
2022-12-07T04:34:23.472Z,99.99
2022-12-07T04:35:23.475Z,99.99
2022-12-07T04:36:23.480Z,99.99
2022-12-07T04:37:23.477Z,99.99
2022-12-07T04:38:23.473Z,99.99
2022-12-07T04:39:23.481Z,99.99
2022-12-07T04:40:23.504Z,99.99
2022-12-07T04:41:23.484Z,99.99
2022-12-07T04:42:23.480Z,99.99
2022-12-07T04:43:23.480Z,99.99
2022-12-07T04:44:23.486Z,99.99
2022-12-07T04:45:23.483Z,99.99
2022-12-07T04:46:23.560Z,99.99
2022-12-07T04:47:23.499Z,99.99
2022-12-07T04:48:23.492Z,99.99
2022-12-07T04:49:23.494Z,99.99
2022-12-07T04:50:23.489Z,99.99
2022-12-07T04:51:23.501Z,99.99
2022-12-07T04:52:23.491Z,99.99
2022-12-07T04:53:23.510Z,99.99
2022-12-07T04:54:23.502Z,99.99
2022-12-07T04:55:23.495Z,99.99
2022-12-07T04:56:23.520Z,99.99
2022-12-07T04:57:23.497Z,99.99
2022-12-07T04:58:23.500Z,99.99
2022-12-07T04:59:23.501Z,99.99
2022-12-07T05:00:23.503Z,99.99
2022-12-07T05:01:23.603Z,99.99
2022-12-07T05:02:23.642Z,99.99
2022-12-07T05:03:23.514Z,99.99
2022-12-07T05:04:23.507Z,99.99
2022-12-07T05:05:23.515Z,99.99
2022-12-07T05:06:23.513Z,99.99
2022-12-07T05:07:23.525Z,99.99
2022-12-07T05:08:23.582Z,99.99
2022-12-07T05:09:23.523Z,99.99
2022-12-07T05:10:23.521Z,99.99
2022-12-07T05:11:23.525Z,99.99
2022-12-07T05:12:23.538Z,99.99
2022-12-07T05:13:23.538Z,99.99
2022-12-07T05:14:23.520Z,99.99
2022-12-07T05:15:23.536Z,99.99
2022-12-07T05:16:23.565Z,99.99
2022-12-07T05:17:23.532Z,99.99
2022-12-07T05:18:23.561Z,99.99
2022-12-07T05:19:23.530Z,99.99
2022-12-07T05:20:23.541Z,99.99
2022-12-07T05:21:23.534Z,99.99
2022-12-07T05:22:23.538Z,99.99
2022-12-07T05:23:23.541Z,99.99
2022-12-07T05:24:23.542Z,99.99
2022-12-07T05:25:23.534Z,99.99
2022-12-07T05:26:23.544Z,99.99
2022-12-07T05:27:23.537Z,99.99
2022-12-07T05:28:23.572Z,99.99
2022-12-07T05:29:23.538Z,99.99
2022-12-07T05:30:23.543Z,99.99
2022-12-07T05:31:23.705Z,99.99
2022-12-07T05:32:23.544Z,99.99
2022-12-07T05:33:23.552Z,99.99
2022-12-07T05:34:23.547Z,99.99
2022-12-07T05:35:23.547Z,99.99
2022-12-07T05:36:23.558Z,99.99
2022-12-07T05:37:23.557Z,99.99
2022-12-07T05:38:23.553Z,99.99
2022-12-07T05:39:23.560Z,99.99
2022-12-07T05:40:23.562Z,99.99
2022-12-07T05:41:23.563Z,99.99
2022-12-07T05:42:23.556Z,99.99
2022-12-07T05:43:23.560Z,99.99
2022-12-07T05:44:23.580Z,99.99
2022-12-07T05:45:23.622Z,99.99
2022-12-07T05:46:23.636Z,99.99
2022-12-07T05:47:23.566Z,99.99
2022-12-07T05:48:23.571Z,99.99
2022-12-07T05:49:23.568Z,99.99
2022-12-07T05:50:23.572Z,99.99
2022-12-07T05:51:23.578Z,99.99
2022-12-07T05:52:23.570Z,99.99
2022-12-07T05:53:23.664Z,99.99
2022-12-07T05:54:23.573Z,99.99
2022-12-07T05:55:23.583Z,99.99
2022-12-07T05:56:23.575Z,99.99
2022-12-07T05:57:23.586Z,99.99
2022-12-07T05:58:23.587Z,99.99
2022-12-07T05:59:23.582Z,99.99
2022-12-07T06:00:23.608Z,99.99
2022-12-07T06:01:23.590Z,99.99
2022-12-07T06:02:23.718Z,99.99
2022-12-07T06:03:23.619Z,99.99
2022-12-07T06:04:23.589Z,99.99
2022-12-07T06:05:23.589Z,99.99
2022-12-07T06:06:23.794Z,99.99
2022-12-07T06:07:23.598Z,99.99
2022-12-07T06:08:23.655Z,99.99
2022-12-07T06:09:23.600Z,99.99
2022-12-07T06:10:23.598Z,99.99
2022-12-07T06:11:23.605Z,99.99
2022-12-07T06:12:23.606Z,99.99
2022-12-07T06:13:23.608Z,99.99
2022-12-07T06:14:23.610Z,99.99
2022-12-07T06:15:23.610Z,99.99
2022-12-07T06:16:23.727Z,99.99
2022-12-07T06:17:23.607Z,99.99
2022-12-07T06:18:23.616Z,99.99
2022-12-07T06:19:23.616Z,99.99
2022-12-07T06:20:23.621Z,99.99
2022-12-07T06:21:23.619Z,99.99
2022-12-07T06:22:23.633Z,99.99
2022-12-07T06:23:23.623Z,99.99
2022-12-07T06:24:23.617Z,99.99
2022-12-07T06:25:23.620Z,99.99
2022-12-07T06:26:23.631Z,99.99
2022-12-07T06:27:23.623Z,99.99
2022-12-07T06:28:23.632Z,99.99
2022-12-07T06:29:23.626Z,99.99
2022-12-07T06:30:23.626Z,99.99
2022-12-07T06:31:23.711Z,99.99
2022-12-07T06:32:23.649Z,99.99
2022-12-07T06:33:23.638Z,99.99
2022-12-07T06:34:23.646Z,99.99
2022-12-07T06:35:23.643Z,99.99
2022-12-07T06:36:27.163Z,99.99
2022-12-07T06:37:23.648Z,99.99
2022-12-07T06:38:23.639Z,99.99
2022-12-07T06:39:23.650Z,99.99
2022-12-07T06:40:23.650Z,99.99
2022-12-07T06:41:23.652Z,99.99
2022-12-07T06:42:23.644Z,99.99
2022-12-07T06:43:23.654Z,99.99
2022-12-07T06:44:23.652Z,99.99
2022-12-07T06:45:23.668Z,99.99
2022-12-07T06:46:23.762Z,99.99
2022-12-07T06:47:41.557Z,99.99
2022-12-07T06:48:23.674Z,99.99
2022-12-07T06:49:23.663Z,99.99
2022-12-07T06:50:23.720Z,99.99
2022-12-07T06:51:23.664Z,99.99
2022-12-07T06:52:23.658Z,99.99
2022-12-07T06:53:23.670Z,99.99
2022-12-07T06:54:23.663Z,99.99
2022-12-07T06:55:23.663Z,99.99
2022-12-07T06:56:23.665Z,99.99
2022-12-07T06:57:23.673Z,99.99
2022-12-07T06:58:23.675Z,99.99
2022-12-07T06:59:23.668Z,99.99
2022-12-07T07:00:23.678Z,99.99
2022-12-07T07:01:23.721Z,99.99
2022-12-07T07:02:23.722Z,99.99
2022-12-07T07:03:23.684Z,99.99
2022-12-07T07:04:23.700Z,99.99
2022-12-07T07:05:23.683Z,99.99
2022-12-07T07:06:23.680Z,99.99
2022-12-07T07:07:23.684Z,99.99
2022-12-07T07:08:24.315Z,99.99
2022-12-07T07:09:23.688Z,99.99
2022-12-07T07:10:23.687Z,99.99
2022-12-07T07:11:23.697Z,99.99
2022-12-07T07:12:23.695Z,99.99
2022-12-07T07:13:23.692Z,99.99
2022-12-07T07:14:23.699Z,99.99
2022-12-07T07:15:23.703Z,99.99
2022-12-07T07:16:23.717Z,99.99
2022-12-07T07:17:23.704Z,99.99
2022-12-07T07:18:23.698Z,99.99
2022-12-07T07:19:23.710Z,99.99
2022-12-07T07:20:23.727Z,99.99
2022-12-07T07:21:23.711Z,99.99
2022-12-07T07:22:23.712Z,99.99
2022-12-07T07:23:23.716Z,99.99
2022-12-07T07:24:23.707Z,99.99
2022-12-07T07:25:23.710Z,99.99
2022-12-07T07:26:23.713Z,99.99
2022-12-07T07:27:23.720Z,99.99
2022-12-07T07:28:23.722Z,99.99
2022-12-07T07:29:23.724Z,99.99
2022-12-07T07:30:23.984Z,99.99
2022-12-07T07:31:23.747Z,99.99
2022-12-07T07:32:23.724Z,99.99
2022-12-07T07:33:23.723Z,99.99
2022-12-07T07:34:23.727Z,99.99
2022-12-07T07:35:23.738Z,99.99
2022-12-07T07:36:23.752Z,99.99
2022-12-07T07:37:23.728Z,99.99
2022-12-07T07:38:23.739Z,99.99
2022-12-07T07:39:23.732Z,99.99
2022-12-07T07:40:23.735Z,99.99
2022-12-07T07:41:23.737Z,99.99
2022-12-07T07:42:23.740Z,99.99
2022-12-07T07:43:23.746Z,99.99
2022-12-07T07:44:23.740Z,99.99
2022-12-07T07:45:23.749Z,99.99
2022-12-07T07:46:23.829Z,99.99
2022-12-07T07:47:23.746Z,99.99
2022-12-07T07:48:23.744Z,99.99
2022-12-07T07:49:23.750Z,99.99
2022-12-07T07:50:23.749Z,99.99
2022-12-07T07:51:23.763Z,99.99
2022-12-07T07:52:23.781Z,99.99
2022-12-07T07:53:23.763Z,99.99
2022-12-07T07:54:23.755Z,99.99
2022-12-07T07:55:23.897Z,99.99
2022-12-07T07:56:23.759Z,99.99
2022-12-07T07:57:23.772Z,99.99
2022-12-07T07:58:23.762Z,99.99
2022-12-07T07:59:23.772Z,99.99
2022-12-07T08:00:23.773Z,99.91
2022-12-07T08:01:23.832Z,99.99
2022-12-07T08:02:23.771Z,99.99
2022-12-07T08:03:23.786Z,99.99
2022-12-07T08:04:23.863Z,99.82
2022-12-07T08:05:23.781Z,99.73
2022-12-07T08:06:29.062Z,99.91
2022-12-07T08:07:23.778Z,99.82
2022-12-07T08:08:23.895Z,99.73
2022-12-07T08:09:23.791Z,99.73
2022-12-07T08:10:23.785Z,99.73
2022-12-07T08:11:23.785Z,99.73
2022-12-07T08:12:23.789Z,99.63
2022-12-07T08:13:30.613Z,99.63
2022-12-07T08:14:23.800Z,99.54
2022-12-07T08:15:23.793Z,99.73
2022-12-07T08:16:23.904Z,99.44
2022-12-07T08:17:23.803Z,99.54
2022-12-07T08:18:23.811Z,99.35
2022-12-07T08:19:23.801Z,99.44
2022-12-07T08:20:23.800Z,99.73
2022-12-07T08:21:23.811Z,99.73
2022-12-07T08:22:23.813Z,99.54
2022-12-07T08:23:31.547Z,99.44
2022-12-07T08:24:23.836Z,99.63
2022-12-07T08:25:23.820Z,99.82
2022-12-07T08:26:23.813Z,99.44
2022-12-07T08:27:23.823Z,99.73
2022-12-07T08:28:23.825Z,99.73
2022-12-07T08:29:23.820Z,99.77
2022-12-07T08:30:23.830Z,99.54
2022-12-07T08:31:23.873Z,99.30
2022-12-07T08:32:23.832Z,99.77
2022-12-07T08:33:23.836Z,99.54
2022-12-07T08:34:23.832Z,99.58
2022-12-07T08:35:23.832Z,99.77
2022-12-07T08:36:23.834Z,99.58
2022-12-07T08:37:23.836Z,99.68
2022-12-07T08:38:30.093Z,99.49
2022-12-07T08:39:31.388Z,99.49
2022-12-07T08:40:23.872Z,99.40
2022-12-07T08:41:23.851Z,99.87
2022-12-07T08:42:23.855Z,99.77
2022-12-07T08:43:23.856Z,99.97
2022-12-07T08:44:23.859Z,99.77
2022-12-07T08:45:27.477Z,99.40
2022-12-07T08:46:23.917Z,99.58
2022-12-07T08:47:23.863Z,99.40
2022-12-07T08:48:23.860Z,99.30
2022-12-07T08:49:23.872Z,99.77
2022-12-07T08:50:23.870Z,99.68
2022-12-07T08:51:23.875Z,99.02
2022-12-07T08:52:23.875Z,99.02
2022-12-07T08:53:23.872Z,98.73
2022-12-07T08:54:23.873Z,98.16
2022-12-07T08:55:23.884Z,98.07
2022-12-07T08:56:23.899Z,98.45
2022-12-07T08:57:23.880Z,99.02
2022-12-07T08:58:23.892Z,98.83
2022-12-07T08:59:23.893Z,98.26
2022-12-07T09:00:23.895Z,98.35
2022-12-07T09:01:23.939Z,98.16
2022-12-07T09:02:23.892Z,98.26
2022-12-07T09:03:23.901Z,98.45
2022-12-07T09:04:23.899Z,97.97
2022-12-07T09:05:23.942Z,98.35
2022-12-07T09:06:24.004Z,98.26
2022-12-07T09:07:24.023Z,98.54
2022-12-07T09:08:23.990Z,98.07
2022-12-07T09:09:23.911Z,97.88
2022-12-07T09:10:23.984Z,98.26
2022-12-07T09:11:28.472Z,98.16
2022-12-07T09:12:23.936Z,98.07
2022-12-07T09:13:23.916Z,98.07
2022-12-07T09:14:23.932Z,98.26
2022-12-07T09:15:23.921Z,98.26
2022-12-07T09:16:23.950Z,98.26
2022-12-07T09:17:23.926Z,97.88
2022-12-07T09:18:23.933Z,98.45
2022-12-07T09:19:23.932Z,98.07
2022-12-07T09:20:27.770Z,98.07
2022-12-07T09:21:23.942Z,97.78
2022-12-07T09:22:23.943Z,98.45
2022-12-07T09:23:23.946Z,98.07
2022-12-07T09:24:23.946Z,98.26
2022-12-07T09:25:23.943Z,98.07
2022-12-07T09:26:23.954Z,98.35
2022-12-07T09:27:23.948Z,98.45
2022-12-07T09:28:23.980Z,98.26
2022-12-07T09:29:23.960Z,97.88
2022-12-07T09:30:23.958Z,98.45
2022-12-07T09:31:25.480Z,98.26
2022-12-07T09:32:24.136Z,98.35
2022-12-07T09:33:23.968Z,98.45
2022-12-07T09:34:24.055Z,98.45
2022-12-07T09:35:23.966Z,97.69
2022-12-07T09:36:23.977Z,98.26
2022-12-07T09:37:23.977Z,97.97
2022-12-07T09:38:23.983Z,97.97
2022-12-07T09:39:23.975Z,98.26
2022-12-07T09:40:23.986Z,98.07
2022-12-07T09:41:23.980Z,97.60
2022-12-07T09:42:24.036Z,97.69
2022-12-07T09:43:23.986Z,97.41
2022-12-07T09:44:24.024Z,97.41
2022-12-07T09:45:23.989Z,97.50
2022-12-07T09:46:24.060Z,97.22
2022-12-07T09:47:24.002Z,97.31
2022-12-07T09:48:24.002Z,97.41
2022-12-07T09:49:24.000Z,97.69
2022-12-07T09:50:24.007Z,97.41
2022-12-07T09:51:25.603Z,97.41
2022-12-07T09:52:24.004Z,97.41
2022-12-07T09:53:24.008Z,97.41
2022-12-07T09:54:24.009Z,97.60
2022-12-07T09:55:24.022Z,97.31
2022-12-07T09:56:24.015Z,97.41
2022-12-07T09:57:24.018Z,97.22
2022-12-07T09:58:24.019Z,97.12
2022-12-07T09:59:24.030Z,97.22
2022-12-07T10:00:24.055Z,97.41
2022-12-07T10:01:24.105Z,98.07
2022-12-07T10:02:24.037Z,98.07
2022-12-07T10:03:24.032Z,98.07
2022-12-07T10:04:24.202Z,98.26
2022-12-07T10:05:24.653Z,97.88
2022-12-07T10:06:24.048Z,97.88
2022-12-07T10:07:24.041Z,97.69
2022-12-07T10:08:24.171Z,97.97
2022-12-07T10:09:24.045Z,98.35
2022-12-07T10:10:24.056Z,98.26
2022-12-07T10:11:24.051Z,98.26
2022-12-07T10:12:24.064Z,98.35
2022-12-07T10:13:24.055Z,98.16
2022-12-07T10:14:44.119Z,98.26
2022-12-07T10:15:24.563Z,98.35
2022-12-07T10:16:24.100Z,97.88
2022-12-07T10:17:24.065Z,98.45
2022-12-07T10:18:24.075Z,97.88
2022-12-07T10:19:24.072Z,98.07
2022-12-07T10:20:24.079Z,97.97
2022-12-07T10:21:24.076Z,97.78
2022-12-07T10:22:28.840Z,97.97
2022-12-07T10:23:24.081Z,98.26
2022-12-07T10:24:24.088Z,97.97
2022-12-07T10:25:24.094Z,97.97
2022-12-07T10:26:24.087Z,98.07
2022-12-07T10:27:24.114Z,98.35
2022-12-07T10:28:24.100Z,98.16
2022-12-07T10:29:24.105Z,97.60
2022-12-07T10:30:24.106Z,97.50
2022-12-07T10:31:24.193Z,96.83
2022-12-07T10:32:24.123Z,96.64
2022-12-07T10:33:24.108Z,96.50
2022-12-07T10:34:24.117Z,96.31
2022-12-07T10:35:24.115Z,96.03
2022-12-07T10:37:11.664Z,96.22
2022-12-07T10:38:11.670Z,95.84
2022-12-07T10:39:11.670Z,95.17
2022-12-07T10:40:11.678Z,95.17
2022-12-07T10:41:11.681Z,94.98
2022-12-07T10:42:11.677Z,95.08
2022-12-07T10:43:11.681Z,95.08
2022-12-07T10:44:11.682Z,95.27
2022-12-07T10:45:11.772Z,95.27
2022-12-07T10:46:14.979Z,95.27
2022-12-07T10:47:11.798Z,95.27
2022-12-07T10:48:11.717Z,95.46
2022-12-07T10:49:11.704Z,94.60
2022-12-07T10:50:11.703Z,94.32
2022-12-07T10:51:11.714Z,94.51
2022-12-07T10:52:11.717Z,93.84
2022-12-07T10:53:11.713Z,93.94
2022-12-07T10:54:11.721Z,93.37
2022-12-07T10:55:11.718Z,93.18
2022-12-07T10:56:11.731Z,92.71
2022-12-07T10:57:11.727Z,92.90
2022-12-07T10:58:11.727Z,92.80
2022-12-07T10:59:11.740Z,92.80
2022-12-07T11:00:11.735Z,92.80
2022-12-07T11:01:11.797Z,92.61
2022-12-07T11:02:12.800Z,92.80
2022-12-07T11:03:11.753Z,92.85
2022-12-07T11:04:11.772Z,92.85
2022-12-07T11:05:11.760Z,92.85
2022-12-07T11:06:11.755Z,92.13
2022-12-07T11:07:56.992Z,92.51
2022-12-07T11:28:33.183Z,90.94
2022-12-07T11:29:33.174Z,90.28
2022-12-07T11:30:33.168Z,90.37
2022-12-07T11:31:33.221Z,90.56
2022-12-07T11:32:33.184Z,89.42
2022-12-07T12:09:41.799Z,90.99
2022-12-07T12:10:41.732Z,91.19
2022-12-07T12:11:41.859Z,90.61
2022-12-07T12:14:44.940Z,90.14
2022-12-07T12:15:41.748Z,89.95
2022-12-07T12:16:41.835Z,90.05
2022-12-07T12:17:41.754Z,90.14
2022-12-07T12:18:41.750Z,90.14
2022-12-07T12:19:41.755Z,90.33
2022-12-07T12:20:41.762Z,90.33
2022-12-07T12:21:41.764Z,90.61
2022-12-07T12:22:41.763Z,89.76
2022-12-07T12:23:41.779Z,90.33
2022-12-07T12:24:41.790Z,90.33
2022-12-07T12:25:41.799Z,90.33
2022-12-07T13:03:13.031Z,90.90
2022-12-07T13:04:07.948Z,90.14
2022-12-07T13:05:07.947Z,90.80
2022-12-07T13:06:07.951Z,90.42
2022-12-07T13:07:07.944Z,90.23
2022-12-07T13:08:08.046Z,90.23
2022-12-07T13:42:33.228Z,88.71
2022-12-07T13:43:33.212Z,88.90
2022-12-07T13:44:36.595Z,89.19
2022-12-07T13:45:33.208Z,89.47
2022-12-07T13:46:33.282Z,89.47
2022-12-07T13:47:33.205Z,89.67
2022-12-07T13:48:33.216Z,89.53
2022-12-07T13:49:33.209Z,90.00
2022-12-07T13:50:33.222Z,90.38
2022-12-07T13:51:33.213Z,90.57
2022-12-07T13:52:33.217Z,91.14
2022-12-07T13:53:33.217Z,91.24
2022-12-07T13:54:33.229Z,91.24
2022-12-07T13:55:33.222Z,91.24
2022-12-07T13:56:33.237Z,91.71
2022-12-07T13:57:33.234Z,92.18
2022-12-07T13:58:33.273Z,92.09
2022-12-07T13:59:33.239Z,91.71
2022-12-07T14:00:33.242Z,91.99
2022-12-07T14:01:33.401Z,92.18
2022-12-07T14:02:35.333Z,92.28
2022-12-07T14:03:33.374Z,91.99
2022-12-07T14:04:33.247Z,92.09
2022-12-07T14:05:33.247Z,92.47
2022-12-07T14:06:33.255Z,92.28
2022-12-07T14:07:33.259Z,93.13
2022-12-07T14:08:33.262Z,92.66
2022-12-07T14:09:33.256Z,92.75
2022-12-07T14:10:33.260Z,93.04
2022-12-07T14:11:33.268Z,92.85
2022-12-07T14:12:33.264Z,92.66
2022-12-07T14:13:33.267Z,92.94
2022-12-07T14:14:36.828Z,93.13
2022-12-07T14:15:33.271Z,93.04
2022-12-07T14:16:33.360Z,92.94
2022-12-07T14:17:33.276Z,92.94
2022-12-07T14:18:33.287Z,93.23
2022-12-07T14:19:33.281Z,92.94
2022-12-07T14:20:33.288Z,92.94
2022-12-07T14:21:33.293Z,92.85
2022-12-07T14:22:33.298Z,92.94
2022-12-07T14:23:33.305Z,93.23
2022-12-07T14:24:33.300Z,92.94
2022-12-07T14:25:33.296Z,92.94
2022-12-07T14:26:33.314Z,93.23
2022-12-07T14:27:33.715Z,92.94
2022-12-07T14:28:33.333Z,92.75
2022-12-07T14:29:33.320Z,93.23
2022-12-07T14:30:33.497Z,93.23
2022-12-07T14:31:33.393Z,93.04
2022-12-07T14:32:33.329Z,93.04
2022-12-07T14:33:33.315Z,92.94
2022-12-07T14:34:33.318Z,92.94
2022-12-07T14:35:33.328Z,93.23
2022-12-07T14:36:33.339Z,93.23
2022-12-07T14:37:33.334Z,93.32
2022-12-07T14:38:33.328Z,92.94
2022-12-07T14:39:33.341Z,93.04
2022-12-07T14:40:33.333Z,92.94
2022-12-07T14:41:33.337Z,93.51
2022-12-07T14:42:33.351Z,93.89
2022-12-07T14:43:33.349Z,93.51
2022-12-07T14:44:35.847Z,93.80
2022-12-07T14:45:33.353Z,93.41
2022-12-07T14:46:33.404Z,93.80
2022-12-07T14:49:33.681Z,93.80
2022-12-07T14:50:33.916Z,93.60
2022-12-07T14:53:33.364Z,94.08
2022-12-07T14:54:33.365Z,93.89
2022-12-07T14:55:33.367Z,94.08
2022-12-07T14:56:33.396Z,94.08
2022-12-07T14:57:33.377Z,93.80
2022-12-07T14:58:33.377Z,93.99
2022-12-07T14:59:33.378Z,94.27
2022-12-07T15:00:33.391Z,93.80
2022-12-07T15:01:33.389Z,94.08
2022-12-07T15:02:33.410Z,93.41
2022-12-07T15:03:33.428Z,93.89
2022-12-07T15:04:33.478Z,93.41
2022-12-07T15:05:33.468Z,93.80
2022-12-07T15:06:33.402Z,93.89